Time;durP1;ratioP1;P1;durP2;ratioP2;P2;SDS_P1;SDS_P2;PMS_P1;PMS_P2;Temp;Humidity;BMP_temperature;BMP_pressure;BME280_temperature;BME280_humidity;BME280_pressure;Samples;Min_cycle;Max_cycle;Signal;HPM_P1;HPM_P2
2022/05/25 00:01:05;;;;;;;6.05;2.30;;;9.80;99.90;;;;;;5060007;28;19956;-63
2022/05/25 00:03:33;;;;;;;7.38;2.20;;;9.80;99.90;;;;;;5061411;28;20508;-62
2022/05/25 00:06:00;;;;;;;6.03;3.70;;;9.90;99.90;;;;;;5061204;28;20432;-62
2022/05/25 00:08:26;;;;;;;7.68;2.85;;;9.90;99.90;;;;;;5061448;28;20616;-62
2022/05/25 00:10:52;;;;;;;;;;;9.80;99.90;;;;;;5060505;28;20045;-64
2022/05/25 00:13:17;;;;;;;7.40;3.85;;;9.80;99.90;;;;;;5061115;28;20270;-63
2022/05/25 00:15:43;;;;;;;;;;;9.80;99.90;;;;;;5062005;28;20596;-64
2022/05/25 00:18:09;;;;;;;6.05;2.85;;;9.80;99.90;;;;;;5051896;28;19928;-63
2022/05/25 00:20:35;;;;;;;;;;;9.80;99.90;;;;;;5047270;28;20040;-64
2022/05/25 00:23:01;;;;;;;9.15;3.72;;;9.70;99.90;;;;;;5047507;28;19916;-64
2022/05/25 00:25:33;;;;;;;6.72;3.25;;;9.60;99.90;;;;;;5047677;28;20102;-63
2022/05/25 00:28:08;;;;;;;10.30;3.22;;;9.60;99.90;;;;;;5048278;28;20045;-65
2022/05/25 00:30:34;;;;;;;7.20;3.30;;;9.60;99.90;;;;;;5046302;28;20036;-64
2022/05/25 00:33:00;;;;;;;11.70;3.53;;;9.60;99.90;;;;;;5048205;28;20048;-63
2022/05/25 00:35:28;;;;;;;8.98;4.00;;;9.50;99.90;;;;;;5048878;28;20036;-63
2022/05/25 00:37:54;;;;;;;8.32;3.28;;;9.50;99.90;;;;;;5052826;22;20062;-65
2022/05/25 00:40:22;;;;;;;;;;;9.40;99.90;;;;;;5064589;28;20505;-64
2022/05/25 00:42:48;;;;;;;7.80;2.90;;;9.40;99.90;;;;;;5052690;28;19920;-64
2022/05/25 00:45:14;;;;;;;5.13;2.80;;;9.40;99.90;;;;;;5060642;28;20048;-64
2022/05/25 00:47:44;;;;;;;4.97;3.65;;;9.30;99.90;;;;;;5065406;28;20039;-64
2022/05/25 00:50:13;;;;;;;10.68;2.80;;;9.30;99.90;;;;;;5063361;28;20043;-64
2022/05/25 00:52:42;;;;;;;4.35;2.67;;;9.20;99.90;;;;;;5066257;28;20040;-64
2022/05/25 00:55:10;;;;;;;9.63;2.63;;;9.30;99.90;;;;;;5064413;28;20051;-64
2022/05/25 00:57:48;;;;;;;7.45;3.25;;;9.30;99.90;;;;;;5057128;28;20050;-64
2022/05/25 01:00:20;;;;;;;3.88;2.55;;;9.40;99.90;;;;;;5055122;28;20048;-64
2022/05/25 01:02:53;;;;;;;6.45;2.80;;;9.40;99.90;;;;;;5053361;28;20054;-64
2022/05/25 01:05:25;;;;;;;4.53;2.50;;;9.40;99.90;;;;;;5056997;28;20044;-64
2022/05/25 01:08:05;;;;;;;7.90;2.30;;;9.40;99.90;;;;;;5054836;28;20040;-64
2022/05/25 01:10:34;;;;;;;4.35;2.20;;;9.40;99.90;;;;;;5058444;28;20044;-64
2022/05/25 01:13:21;;;;;;;4.90;2.33;;;9.40;99.90;;;;;;5054460;28;20041;-65
2022/05/25 01:16:40;;;;;;;7.43;2.28;;;9.40;99.90;;;;;;5060250;28;20051;-64
2022/05/25 01:19:37;;;;;;;6.10;1.83;;;9.50;99.90;;;;;;5047497;28;20041;-64
2022/05/25 01:22:31;;;;;;;4.80;2.13;;;9.40;99.90;;;;;;5040693;28;20124;-64
2022/05/25 01:25:43;;;;;;;3.88;1.80;;;9.40;99.90;;;;;;5050848;28;20052;-64
2022/05/25 01:28:31;;;;;;;5.60;1.95;;;9.40;99.90;;;;;;5062727;28;20044;-63
2022/05/25 01:30:58;;;;;;;3.75;2.03;;;9.30;99.90;;;;;;5051363;28;20502;-64
2022/05/25 01:33:31;;;;;;;2.63;1.85;;;9.30;99.90;;;;;;5057133;28;20094;-64
2022/05/25 01:36:00;;;;;;;2.53;1.80;;;9.30;99.90;;;;;;5053007;28;20041;-65
2022/05/25 01:38:44;;;;;;;3.42;1.70;;;9.30;99.90;;;;;;5057611;28;20298;-64
2022/05/25 01:41:24;;;;;;;2.78;1.10;;;9.30;99.90;;;;;;5060997;28;20116;-64
2022/05/25 01:44:04;;;;;;;1.73;1.52;;;9.30;99.90;;;;;;5052756;28;20615;-65
2022/05/25 01:46:39;;;;;;;5.65;1.70;;;9.20;99.90;;;;;;5061935;28;20365;-65
2022/05/25 01:49:12;;;;;;;3.13;1.25;;;9.20;99.90;;;;;;5069294;28;20064;-65
2022/05/25 01:51:48;;;;;;;2.00;1.33;;;9.20;99.90;;;;;;5062075;28;20536;-65
2022/05/25 01:54:17;;;;;;;;;;;9.20;99.90;;;;;;5058432;28;20044;-64
2022/05/25 01:56:46;;;;;;;4.82;1.40;;;9.20;99.90;;;;;;5061564;28;19927;-64
2022/05/25 01:59:15;;;;;;;4.18;1.77;;;9.10;99.90;;;;;;5065777;28;20079;-64
2022/05/25 02:04:19;;;;;;;2.83;1.67;;;9.10;99.90;;;;;;5048051;28;20047;-63
2022/05/25 02:04:38;;;;;;;2.75;1.25;;;9.10;99.90;;;;;;5045775;28;20048;-64
2022/05/25 02:07:15;;;;;;;7.35;1.55;;;9.10;99.90;;;;;;5062898;28;20048;-64
2022/05/25 02:09:56;;;;;;;3.05;1.30;;;9.10;99.90;;;;;;5054511;28;20089;-64
2022/05/25 02:12:32;;;;;;;2.95;1.58;;;9.10;99.90;;;;;;5056814;28;20041;-64
2022/05/25 02:15:21;;;;;;;4.35;1.40;;;9.00;99.90;;;;;;5044802;28;20053;-64
2022/05/25 02:18:15;;;;;;;2.00;1.27;;;8.90;99.90;;;;;;5057186;28;20536;-64
2022/05/25 02:21:22;;;;;;;2.95;1.30;;;9.00;99.90;;;;;;5058159;28;20040;-64
2022/05/25 02:23:58;;;;;;;5.10;1.60;;;8.90;99.90;;;;;;5062105;28;20048;-64
2022/05/25 02:26:44;;;;;;;2.63;1.38;;;8.90;99.90;;;;;;5055583;28;20041;-64
2022/05/25 02:29:35;;;;;;;4.60;1.50;;;8.90;99.90;;;;;;5056923;28;20120;-64
2022/05/25 02:32:34;;;;;;;1.63;1.23;;;8.90;99.90;;;;;;5050249;28;21000;-64
2022/05/25 02:35:01;;;;;;;2.13;1.30;;;8.90;99.90;;;;;;5062607;28;20047;-64
2022/05/25 02:37:29;;;;;;;4.25;1.60;;;8.90;99.90;;;;;;5048803;28;20060;-64
2022/05/25 02:39:55;;;;;;;4.80;1.25;;;8.90;99.90;;;;;;5060737;28;20036;-64
2022/05/25 02:42:21;;;;;;;;;;;8.90;99.90;;;;;;5050576;28;20102;-64
2022/05/25 02:44:46;;;;;;;1.25;0.90;;;8.90;99.90;;;;;;5059692;28;19916;-64
2022/05/25 02:47:12;;;;;;;;;;;8.80;99.90;;;;;;5059488;28;20135;-64
2022/05/25 02:49:39;;;;;;;8.55;1.20;;;8.90;99.90;;;;;;5065002;28;20423;-64
2022/05/25 02:52:08;;;;;;;1.35;1.00;;;8.80;99.90;;;;;;5064038;28;20037;-64
2022/05/25 02:54:33;;;;;;;3.78;1.20;;;8.90;99.90;;;;;;5056216;28;20110;-64
2022/05/25 02:56:59;;;;;;;;;;;8.80;99.90;;;;;;5055225;28;20048;-64
2022/05/25 02:59:24;;;;;;;2.17;1.00;;;8.90;99.90;;;;;;5053607;28;19920;-65
2022/05/25 03:01:50;;;;;;;;;;;8.90;99.90;;;;;;5063835;28;20041;-65
2022/05/25 03:04:15;;;;;;;2.88;1.30;;;8.90;99.90;;;;;;5056679;28;19954;-64
2022/05/25 03:06:41;;;;;;;;;;;8.90;99.90;;;;;;5059021;28;20060;-64
2022/05/25 03:09:07;;;;;;;2.40;0.90;;;8.90;99.90;;;;;;5049802;28;19916;-64
2022/05/25 03:11:32;;;;;;;;;;;8.90;99.90;;;;;;5061161;28;20044;-64
2022/05/25 03:13:58;;;;;;;4.03;1.20;;;8.90;99.90;;;;;;5048466;28;19931;-64
2022/05/25 03:16:24;;;;;;;4.78;1.75;;;8.80;99.90;;;;;;5062429;28;20041;-64
2022/05/25 03:18:53;;;;;;;;;;;8.90;99.90;;;;;;5061827;28;20250;-64
2022/05/25 03:21:19;;;;;;;2.38;1.15;;;8.80;99.90;;;;;;5055931;28;20418;-64
2022/05/25 03:23:45;;;;;;;1.83;1.17;;;8.80;99.90;;;;;;5055762;28;20688;-64
2022/05/25 03:26:11;;;;;;;;;;;8.90;99.90;;;;;;5054445;28;20048;-64
2022/05/25 03:28:36;;;;;;;4.72;1.30;;;8.80;99.90;;;;;;5056102;28;19924;-64
2022/05/25 03:31:03;;;;;;;;;;;8.80;99.90;;;;;;5054279;28;20039;-64
2022/05/25 03:33:28;;;;;;;8.07;2.05;;;8.80;99.90;;;;;;5053910;28;19970;-64
2022/05/25 03:35:54;;;;;;;;;;;8.80;99.90;;;;;;5059836;28;20044;-64
2022/05/25 03:38:20;;;;;;;4.10;1.63;;;8.80;99.90;;;;;;5059050;28;19970;-64
2022/05/25 03:40:48;;;;;;;3.83;1.30;;;8.80;99.90;;;;;;5054343;28;20562;-64
2022/05/25 03:43:17;;;;;;;4.03;1.58;;;8.70;99.90;;;;;;5054433;28;20067;-64
2022/05/25 03:45:43;;;;;;;1.45;1.20;;;8.80;99.90;;;;;;5056780;28;20075;-64
2022/05/25 03:48:10;;;;;;;3.05;1.40;;;8.90;99.90;;;;;;5062711;28;20044;-63
2022/05/25 03:50:41;;;;;;;6.10;1.58;;;9.00;99.90;;;;;;5060124;28;20160;-64
2022/05/25 03:53:12;;;;;;;6.55;1.23;;;9.10;99.90;;;;;;5060209;28;20124;-64
2022/05/25 03:55:39;;;;;;;5.03;1.67;;;9.20;99.90;;;;;;5058590;28;20045;-63
2022/05/25 03:58:05;;;;;;;7.43;1.42;;;9.20;99.90;;;;;;5059232;28;20045;-64
2022/05/25 04:00:31;;;;;;;3.45;1.35;;;9.20;99.90;;;;;;5060505;28;20047;-64
2022/05/25 04:02:59;;;;;;;1.98;1.33;;;9.20;99.90;;;;;;5054475;28;20051;-64
2022/05/25 04:05:26;;;;;;;2.25;1.30;;;9.20;99.90;;;;;;5061236;28;20045;-64
2022/05/25 04:07:54;;;;;;;10.50;1.90;;;9.20;99.90;;;;;;5057886;28;20147;-64
2022/05/25 04:10:21;;;;;;;3.90;1.38;;;9.20;99.90;;;;;;5062029;28;20032;-64
2022/05/25 04:12:46;;;;;;;5.00;1.40;;;9.20;99.90;;;;;;5060674;28;20032;-64
2022/05/25 04:15:14;;;;;;;;;;;9.20;99.90;;;;;;5061820;28;20043;-64
2022/05/25 04:17:40;;;;;;;3.53;1.55;;;9.20;99.90;;;;;;5057043;28;20377;-64
2022/05/25 04:20:06;;;;;;;;;;;9.30;99.90;;;;;;5055497;28;20044;-64
2022/05/25 04:22:32;;;;;;;3.10;1.30;;;9.80;99.90;;;;;;5068955;28;19952;-62
2022/05/25 04:24:59;;;;;;;;;;;10.20;99.90;;;;;;5068172;28;20178;-64
2022/05/25 04:27:25;;;;;;;2.67;1.38;;;10.30;99.90;;;;;;5049482;28;19970;-64
2022/05/25 04:29:51;;;;;;;2.63;1.08;;;10.30;99.90;;;;;;5066619;28;20425;-63
2022/05/25 04:32:17;;;;;;;;;;;11.10;99.90;;;;;;5058531;28;20050;-63
2022/05/25 04:34:43;;;;;;;4.20;1.40;;;12.00;99.90;;;;;;5057266;28;20003;-68
2022/05/25 04:39:53;;;;;;;4.07;1.80;;;11.50;99.90;;;;;;5065102;28;20488;-61
2022/05/25 04:42:19;;;;;;;;;;;11.30;99.90;;;;;;5062473;28;20094;-65
2022/05/25 04:44:45;;;;;;;4.03;1.50;;;11.30;99.90;;;;;;5063216;28;19926;-64
2022/05/25 04:47:10;;;;;;;;;;;11.40;99.90;;;;;;5057874;28;20086;-63
2022/05/25 04:49:36;;;;;;;3.60;1.83;;;11.30;99.90;;;;;;5052362;28;19947;-63
2022/05/25 04:52:02;;;;;;;;;;;11.30;99.90;;;;;;5047197;28;20060;-63
2022/05/25 04:54:28;;;;;;;8.63;2.43;;;11.40;99.90;;;;;;5062253;28;19923;-64
2022/05/25 04:59:37;;;;;;;4.40;2.85;;;11.30;99.90;;;;;;5062328;28;19920;-64
2022/05/25 05:02:03;;;;;;;;;;;11.40;99.90;;;;;;5066959;28;20415;-64
2022/05/25 05:04:29;;;;;;;8.07;2.63;;;11.50;99.90;;;;;;5063646;28;20115;-64
2022/05/25 05:06:54;;;;;;;;;;;11.60;99.90;;;;;;5055961;28;20123;-64
2022/05/25 05:09:20;;;;;;;8.88;3.78;;;12.00;99.90;;;;;;5059052;28;20415;-64
2022/05/25 05:11:46;;;;;;;;;;;12.30;99.90;;;;;;5056936;28;20493;-63
2022/05/25 05:14:14;;;;;;;8.07;4.70;;;12.50;99.90;;;;;;5057055;28;19923;-63
2022/05/25 05:16:40;;;;;;;7.57;3.40;;;12.70;99.90;;;;;;5058718;28;20045;-63
2022/05/25 05:19:05;;;;;;;;;;;12.80;99.90;;;;;;5069790;28;20047;-65
2022/05/25 05:21:31;;;;;;;7.68;4.55;;;12.70;99.90;;;;;;5058076;28;19965;-64
2022/05/25 05:23:56;;;;;;;;;;;12.90;99.90;;;;;;5056204;28;20090;-64
2022/05/25 05:26:22;;;;;;;8.80;4.97;;;12.90;99.90;;;;;;5055948;28;19924;-64
2022/05/25 05:28:49;;;;;;;9.45;5.85;;;12.90;99.90;;;;;;5063507;28;20536;-65
2022/05/25 05:31:15;;;;;;;8.70;5.10;;;12.80;99.90;;;;;;5052870;28;20041;-63
2022/05/25 05:33:41;;;;;;;;;;;13.00;99.90;;;;;;5061655;28;20032;-64
2022/05/25 05:36:35;;;;;;;9.93;5.47;;;13.00;99.90;;;;;;5060683;28;19924;-64
2022/05/25 05:39:05;;;;;;;11.88;5.15;;;13.00;99.90;;;;;;5058734;28;20052;-64
2022/05/25 05:41:46;;;;;;;9.30;4.95;;;13.00;99.90;;;;;;5055261;28;20115;-64
2022/05/25 05:44:14;;;;;;;12.50;6.45;;;12.80;99.90;;;;;;5059609;28;20068;-65
2022/05/25 05:46:42;;;;;;;10.13;6.07;;;12.80;99.90;;;;;;5057425;28;20036;-64
2022/05/25 05:49:12;;;;;;;14.07;6.93;;;12.90;99.90;;;;;;5063555;28;20519;-64
2022/05/25 05:51:39;;;;;;;9.32;6.30;;;12.90;99.90;;;;;;5060344;28;20085;-63
2022/05/25 05:54:05;;;;;;;10.65;5.68;;;12.90;99.90;;;;;;5060355;28;20530;-64
2022/05/25 05:56:32;;;;;;;14.88;6.78;;;12.90;99.90;;;;;;5060343;28;21021;-65
2022/05/25 05:58:59;;;;;;;11.30;7.07;;;13.00;99.90;;;;;;5057455;28;20554;-64
2022/05/25 06:01:24;;;;;;;14.50;7.32;;;13.10;99.90;;;;;;5057629;28;20507;-62
2022/05/25 06:03:50;;;;;;;;;;;13.40;99.90;;;;;;5058580;28;20037;-64
2022/05/25 06:06:15;;;;;;;13.52;8.00;;;13.40;99.90;;;;;;5058462;28;19916;-62
2022/05/25 06:08:46;;;;;;;;;;;13.30;99.90;;;;;;5056391;28;20052;-63
2022/05/25 06:11:15;;;;;;;15.68;7.43;;;13.40;99.90;;;;;;5054587;28;19916;-62
2022/05/25 06:13:41;;;;;;;14.60;7.35;;;13.40;99.90;;;;;;5057701;28;20033;-64
2022/05/25 06:21:35;;;;;;;15.85;8.43;;;13.60;99.90;;;;;;5058066;28;20033;-63
2022/05/25 06:24:06;;;;;;;;;;;13.70;99.90;;;;;;5063571;28;20199;-63
2022/05/25 06:26:39;;;;;;;12.82;7.10;;;13.70;99.90;;;;;;5057009;28;20458;-63
2022/05/25 06:29:05;;;;;;;11.85;7.00;;;13.60;99.90;;;;;;5055409;28;20382;-64
2022/05/25 06:31:36;;;;;;;12.68;8.00;;;14.10;99.90;;;;;;5063223;28;20094;-63
2022/05/25 06:34:02;;;;;;;12.32;7.10;;;14.60;99.90;;;;;;5047529;28;20060;-63
2022/05/25 06:36:29;;;;;;;;;;;14.40;99.90;;;;;;5056911;28;20082;-63
2022/05/25 06:38:58;;;;;;;17.08;6.68;;;14.20;99.90;;;;;;5062271;28;19959;-64
2022/05/25 06:41:28;;;;;;;10.00;5.63;;;14.20;99.90;;;;;;5063206;28;20050;-64
2022/05/25 06:44:11;;;;;;;12.48;6.25;;;14.50;99.90;;;;;;5056686;28;20037;-63
2022/05/25 06:46:40;;;;;;;8.57;6.80;;;14.40;99.90;;;;;;5053744;28;20464;-63
2022/05/25 06:49:11;;;;;;;;;;;14.10;99.90;;;;;;5060579;28;20102;-64
2022/05/25 06:51:42;;;;;;;9.00;6.85;;;14.10;99.90;;;;;;5060534;28;19921;-64
2022/05/25 06:54:14;;;;;;;8.10;5.40;;;13.90;99.90;;;;;;5062346;28;20035;-62
2022/05/25 06:56:42;;;;;;;16.35;7.05;;;13.70;99.90;;;;;;5077738;28;20051;-63
2022/05/25 06:59:08;;;;;;;11.88;6.38;;;13.70;99.90;;;;;;5066065;28;20059;-64
2022/05/25 07:01:40;;;;;;;;;;;14.20;99.90;;;;;;5051140;28;20040;-63
2022/05/25 07:04:07;;;;;;;7.32;4.82;;;14.50;99.90;;;;;;5051062;28;19917;-64
2022/05/25 07:06:38;;;;;;;8.77;4.75;;;14.50;99.90;;;;;;5059528;28;20186;-63
2022/05/25 07:09:13;;;;;;;8.52;4.60;;;14.50;99.90;;;;;;5050902;28;20131;-63
2022/05/25 07:11:42;;;;;;;;;;;14.40;99.90;;;;;;5058690;28;20496;-64
2022/05/25 07:14:11;;;;;;;6.28;3.65;;;14.80;99.90;;;;;;5056672;28;19927;-63
2022/05/25 07:16:37;;;;;;;8.98;3.70;;;15.70;99.90;;;;;;5057954;28;20055;-65
2022/05/25 07:19:03;;;;;;;;;;;16.20;98.90;;;;;;5071188;28;20036;-66
2022/05/25 07:21:33;;;;;;;5.45;3.30;;;16.60;97.10;;;;;;5066260;28;20484;-64
2022/05/25 07:24:00;;;;;;;5.93;3.20;;;15.70;97.00;;;;;;5052942;28;20115;-65
2022/05/25 07:26:28;;;;;;;4.97;3.42;;;15.90;99.10;;;;;;5056734;28;20719;-65
2022/05/25 07:28:54;;;;;;;7.18;2.80;;;15.20;99.20;;;;;;5060133;28;20056;-65
2022/05/25 07:31:23;;;;;;;;;;;16.40;98.30;;;;;;5058142;28;20036;-64
2022/05/25 07:33:55;;;;;;;5.07;2.58;;;16.70;97.10;;;;;;5060190;28;19920;-65
2022/05/25 07:36:22;;;;;;;3.92;2.30;;;16.20;97.60;;;;;;5059165;28;20123;-64
2022/05/25 07:38:51;;;;;;;8.82;3.22;;;16.20;98.30;;;;;;5068241;28;20047;-65
2022/05/25 07:41:17;;;;;;;5.22;2.47;;;15.90;97.60;;;;;;5063299;28;20049;-64
2022/05/25 07:43:43;;;;;;;;;;;15.60;98.70;;;;;;5055960;28;20035;-66
2022/05/25 07:46:09;;;;;;;9.27;3.50;;;15.90;98.60;;;;;;5065308;28;20411;-65
2022/05/25 07:48:36;;;;;;;8.27;3.30;;;16.70;96.80;;;;;;5066874;28;20048;-64
2022/05/25 07:51:03;;;;;;;5.95;3.08;;;17.40;94.10;;;;;;5069538;28;20029;-65
2022/05/25 07:56:16;;;;;;;5.77;3.07;;;19.80;88.00;;;;;;5061576;28;20033;-65
2022/05/25 07:58:41;;;;;;;4.72;2.22;;;20.70;82.90;;;;;;5066593;28;20443;-65
2022/05/25 08:01:13;;;;;;;2.88;2.30;;;21.40;79.30;;;;;;5064700;28;20025;-65
2022/05/25 08:06:26;;;;;;;5.03;2.10;;;22.50;74.70;;;;;;5053773;28;20044;-65
2022/05/25 08:08:51;;;;;;;3.50;1.80;;;22.80;74.20;;;;;;5084741;28;20523;-64
2022/05/25 08:11:20;;;;;;;4.25;2.00;;;23.20;74.90;;;;;;5066192;28;20028;-65
2022/05/25 08:13:52;;;;;;;4.13;2.28;;;24.00;71.10;;;;;;5050444;28;20041;-66
2022/05/25 08:16:18;;;;;;;5.07;1.80;;;23.50;67.40;;;;;;5067163;28;20051;-66
2022/05/25 08:18:43;;;;;;;8.93;2.67;;;23.20;70.70;;;;;;5058016;28;20032;-66
2022/05/25 08:21:09;;;;;;;3.67;2.70;;;22.00;71.50;;;;;;5064986;28;20036;-66
2022/05/25 08:23:35;;;;;;;5.75;2.67;;;20.90;75.50;;;;;;5067153;28;20056;-64
2022/05/25 08:26:01;;;;;;;4.93;2.92;;;19.50;79.30;;;;;;5065367;28;20487;-64
2022/05/25 08:28:27;;;;;;;6.50;2.80;;;19.20;77.60;;;;;;5058416;28;20701;-65
2022/05/25 08:30:53;;;;;;;6.20;2.72;;;19.20;76.20;;;;;;5067196;28;20033;-67
2022/05/25 08:33:21;;;;;;;5.93;2.80;;;19.50;76.90;;;;;;5066508;28;20052;-66
2022/05/25 08:35:47;;;;;;;5.90;3.22;;;19.40;75.80;;;;;;5067904;28;20668;-64
2022/05/25 08:38:14;;;;;;;5.00;3.70;;;19.30;74.90;;;;;;5066229;28;20033;-65
2022/05/25 08:40:42;;;;;;;6.25;2.85;;;19.40;75.20;;;;;;5065644;28;20040;-65
2022/05/25 08:43:39;;;;;;;12.05;3.45;;;19.80;76.20;;;;;;5061417;28;20043;-64
2022/05/25 08:46:08;;;;;;;7.88;3.47;;;19.70;75.00;;;;;;5056167;28;20491;-64
2022/05/25 08:48:34;;;;;;;3.67;3.00;;;19.50;74.00;;;;;;5071544;28;20068;-64
2022/05/25 08:51:08;;;;;;;3.42;2.85;;;19.10;77.80;;;;;;5067767;28;20036;-64
2022/05/25 08:53:37;;;;;;;4.25;2.72;;;19.00;80.50;;;;;;5060060;28;20060;-63
2022/05/25 08:56:42;;;;;;;3.75;2.40;;;19.00;75.40;;;;;;5066844;28;20059;-64
2022/05/25 08:59:31;;;;;;;3.92;1.95;;;18.70;78.20;;;;;;5053447;28;20045;-64
2022/05/25 09:02:27;;;;;;;2.85;2.20;;;18.10;80.10;;;;;;5044514;28;20411;-64
2022/05/25 09:05:11;;;;;;;6.28;2.00;;;17.80;81.50;;;;;;5051641;28;20032;-63
2022/05/25 09:08:06;;;;;;;3.17;1.80;;;17.00;83.00;;;;;;5061816;28;20044;-64
2022/05/25 09:10:38;;;;;;;8.32;2.80;;;16.70;83.40;;;;;;5055650;28;20060;-63
2022/05/25 09:13:30;;;;;;;3.25;1.95;;;16.30;84.80;;;;;;5058403;28;20028;-63
2022/05/25 09:19:12;;;;;;;4.78;1.60;;;16.00;86.40;;;;;;5062072;28;20033;-63
2022/05/25 09:21:47;;;;;;;3.53;2.03;;;16.00;86.60;;;;;;5050131;28;20055;-62
2022/05/25 09:24:19;;;;;;;2.10;1.90;;;16.20;85.30;;;;;;5064147;28;20076;-62
2022/05/25 09:26:45;;;;;;;3.17;1.77;;;16.30;85.60;;;;;;5063527;28;20040;-62
2022/05/25 09:29:11;;;;;;;;;;;16.10;85.00;;;;;;5064849;28;20037;-62
2022/05/25 09:31:55;;;;;;;3.72;1.50;;;15.90;84.70;;;;;;5064447;28;20291;-62
2022/05/25 09:34:50;;;;;;;1.92;1.27;;;16.00;87.10;;;;;;5058873;28;20045;-62
2022/05/25 09:37:42;;;;;;;3.63;1.30;;;16.10;86.30;;;;;;5066519;28;20044;-63
2022/05/25 09:40:20;;;;;;;1.45;1.05;;;16.20;83.70;;;;;;5056431;28;20037;-63
2022/05/25 09:42:57;;;;;;;1.25;1.10;;;16.20;84.70;;;;;;5059660;28;20039;-63
2022/05/25 09:45:35;;;;;;;1.55;1.17;;;16.40;83.50;;;;;;5065511;28;20574;-62
2022/05/25 09:48:14;;;;;;;0.75;0.68;;;16.60;82.90;;;;;;5064703;28;20040;-64
2022/05/25 09:51:00;;;;;;;3.42;0.80;;;16.60;82.20;;;;;;5058111;28;20407;-64
2022/05/25 09:53:39;;;;;;;1.00;0.85;;;16.40;80.30;;;;;;5067385;28;20041;-66
2022/05/25 09:56:22;;;;;;;8.48;1.08;;;16.40;79.20;;;;;;5061576;28;20052;-63
2022/05/25 09:58:52;;;;;;;4.03;0.98;;;16.30;80.20;;;;;;5056865;28;20056;-65
2022/05/25 10:01:24;;;;;;;2.00;0.70;;;16.40;82.80;;;;;;5057931;28;20125;-64
2022/05/25 10:03:50;;;;;;;2.42;0.90;;;16.50;81.80;;;;;;5059079;28;20064;-64
2022/05/25 10:06:16;;;;;;;4.82;0.98;;;16.50;82.00;;;;;;5060076;28;20037;-64
2022/05/25 10:08:42;;;;;;;1.95;0.70;;;16.50;81.00;;;;;;5053062;28;20048;-64
2022/05/25 10:11:28;;;;;;;3.15;0.98;;;16.50;80.60;;;;;;5064519;28;20036;-65
2022/05/25 10:13:57;;;;;;;3.28;0.95;;;16.10;80.90;;;;;;5061071;28;20038;-64
2022/05/25 10:16:26;;;;;;;2.17;0.90;;;16.30;82.20;;;;;;5061059;28;20051;-65
2022/05/25 10:18:53;;;;;;;2.63;0.75;;;16.40;86.30;;;;;;5058554;28;20041;-65
2022/05/25 10:21:35;;;;;;;1.88;0.80;;;16.60;81.90;;;;;;5066800;28;20040;-65
2022/05/25 10:24:12;;;;;;;3.75;0.68;;;16.50;81.60;;;;;;5058617;28;20040;-66
2022/05/25 10:26:48;;;;;;;2.92;1.05;;;16.30;81.60;;;;;;5064030;28;20037;-65
2022/05/25 10:38:20;;;;;;;1.48;0.47;;;16.10;80.40;;;;;;5054425;28;20135;-65
2022/05/25 10:40:45;;;;;;;3.90;0.70;;;16.40;84.90;;;;;;5065221;28;20040;-68
2022/05/25 10:43:16;;;;;;;;;;;16.60;81.60;;;;;;5055654;28;20044;-65
2022/05/25 10:45:51;;;;;;;1.48;0.52;;;16.70;79.90;;;;;;5063494;28;19924;-64
2022/05/25 10:48:27;;;;;;;2.67;0.60;;;16.60;78.50;;;;;;5063298;28;20102;-64
2022/05/25 10:51:03;;;;;;;1.08;0.60;;;16.60;78.30;;;;;;5059725;28;20118;-66
2022/05/25 10:54:44;;;;;;;1.70;0.50;;;16.70;79.00;;;;;;5056683;28;20077;-65
2022/05/25 10:56:56;;;;;;;4.35;0.80;;;16.90;78.40;;;;;;5055740;28;20130;-65
2022/05/25 10:59:21;;;;;;;2.40;0.47;;;16.80;76.90;;;;;;5060346;28;20756;-64
2022/05/25 11:01:59;;;;;;;;;;;16.90;76.70;;;;;;5044962;28;20075;-64
2022/05/25 11:04:52;;;;;;;2.20;0.75;;;17.00;77.90;;;;;;5057087;28;19983;-63
2022/05/25 11:07:32;;;;;;;1.85;0.60;;;17.00;79.70;;;;;;5057206;28;20043;-64
2022/05/25 11:10:04;;;;;;;0.35;0.35;;;17.00;79.30;;;;;;5053708;28;20032;-63
2022/05/25 11:12:37;;;;;;;2.35;0.50;;;16.70;79.00;;;;;;5056000;28;20036;-63
2022/05/25 11:15:37;;;;;;;1.17;0.63;;;16.30;81.00;;;;;;5063028;28;20044;-63
2022/05/25 11:18:24;;;;;;;1.30;0.60;;;16.40;81.80;;;;;;5061806;28;20063;-63
2022/05/25 11:20:52;;;;;;;0.80;0.40;;;16.60;81.60;;;;;;5055758;28;20029;-61
2022/05/25 11:23:33;;;;;;;2.85;0.30;;;16.90;80.10;;;;;;5050501;28;20037;-64
2022/05/25 11:26:14;;;;;;;1.45;0.38;;;16.90;76.90;;;;;;5054880;28;20536;-65
2022/05/25 11:29:03;;;;;;;1.67;0.70;;;17.20;78.20;;;;;;5056694;28;20045;-62
2022/05/25 11:31:51;;;;;;;1.13;0.50;;;17.20;74.70;;;;;;5059331;28;20086;-65
2022/05/25 11:34:36;;;;;;;1.63;0.40;;;17.30;77.90;;;;;;5063523;28;20044;-64
2022/05/25 11:37:26;;;;;;;2.33;0.57;;;17.30;75.80;;;;;;5058656;28;20064;-66
2022/05/25 11:40:19;;;;;;;12.25;1.58;;;17.20;75.10;;;;;;5056721;28;20036;-64
2022/05/25 11:43:14;;;;;;;5.82;0.50;;;17.10;76.70;;;;;;5053214;28;20053;-65
2022/05/25 11:46:08;;;;;;;2.63;0.80;;;17.00;75.60;;;;;;5049263;28;20044;-64
2022/05/25 11:48:53;;;;;;;1.95;0.30;;;17.20;78.80;;;;;;5057438;28;20397;-65
2022/05/25 11:51:48;;;;;;;4.25;0.32;;;17.40;77.90;;;;;;5063440;28;20433;-65
2022/05/25 11:54:56;;;;;;;2.15;0.50;;;17.60;75.60;;;;;;5064983;28;20128;-64
2022/05/25 11:57:44;;;;;;;2.55;0.70;;;17.70;79.40;;;;;;5064439;28;20412;-65
2022/05/25 12:00:18;;;;;;;1.55;0.40;;;17.80;74.00;;;;;;5065873;28;20727;-64
2022/05/25 12:03:03;;;;;;;0.68;0.30;;;18.00;73.70;;;;;;5046627;28;20060;-65
2022/05/25 12:05:50;;;;;;;0.95;0.30;;;17.40;72.20;;;;;;5061166;28;20041;-64
2022/05/25 12:08:39;;;;;;;2.67;0.50;;;17.00;75.90;;;;;;5050276;28;20500;-65
2022/05/25 12:11:27;;;;;;;0.73;0.30;;;16.90;77.30;;;;;;5057786;28;20433;-64
2022/05/25 12:14:14;;;;;;;1.02;0.50;;;17.20;75.20;;;;;;5055270;28;20040;-64
2022/05/25 12:16:43;;;;;;;0.85;0.30;;;17.50;73.60;;;;;;5050653;28;20041;-64
2022/05/25 12:19:23;;;;;;;1.75;0.40;;;18.00;77.20;;;;;;5071646;28;20067;-64
2022/05/25 12:22:04;;;;;;;9.90;0.95;;;18.10;71.20;;;;;;5055673;28;20047;-64
2022/05/25 12:24:41;;;;;;;3.08;0.50;;;18.30;73.30;;;;;;5070854;28;20040;-64
2022/05/25 12:27:21;;;;;;;0.73;0.35;;;18.00;69.20;;;;;;5061361;28;20489;-64
2022/05/25 12:29:53;;;;;;;0.77;0.40;;;17.40;72.20;;;;;;5051795;28;20049;-64
2022/05/25 12:32:20;;;;;;;0.40;0.32;;;17.20;72.00;;;;;;5062776;28;20036;-65
2022/05/25 12:34:54;;;;;;;1.55;0.32;;;17.20;74.00;;;;;;5050421;28;20059;-64
2022/05/25 12:37:33;;;;;;;1.48;0.40;;;17.40;73.10;;;;;;5064993;28;20047;-64
2022/05/25 12:40:10;;;;;;;0.38;0.25;;;17.50;73.60;;;;;;5067968;28;20045;-64
2022/05/25 12:42:39;;;;;;;1.30;0.20;;;17.70;73.70;;;;;;5063554;28;20033;-64
2022/05/25 12:50:53;;;;;;;2.20;0.30;;;17.90;69.30;;;;;;5063028;28;20044;-64
2022/05/25 12:53:36;;;;;;;1.20;0.30;;;18.00;72.70;;;;;;5051420;28;20127;-65
2022/05/25 12:56:15;;;;;;;0.63;0.30;;;17.80;67.40;;;;;;5061118;28;20060;-64
2022/05/25 12:58:44;;;;;;;1.15;0.38;;;17.80;70.70;;;;;;5050131;28;20041;-65
2022/05/25 13:01:27;;;;;;;0.45;0.28;;;17.80;70.70;;;;;;5071095;28;20724;-63
2022/05/25 13:03:58;;;;;;;2.72;0.20;;;17.80;72.80;;;;;;5056035;28;20102;-66
2022/05/25 13:06:33;;;;;;;0.73;0.32;;;17.60;70.00;;;;;;5048943;28;20041;-67
2022/05/25 13:09:03;;;;;;;4.28;0.30;;;17.30;73.40;;;;;;5067376;28;20048;-64
2022/05/25 13:11:40;;;;;;;1.02;0.30;;;17.50;71.50;;;;;;5063951;28;20033;-65
2022/05/25 13:14:17;;;;;;;;;;;17.40;71.50;;;;;;5067694;28;20040;-64
2022/05/25 13:16:45;;;;;;;1.50;0.28;;;17.40;72.20;;;;;;5065827;28;20387;-64
2022/05/25 13:19:21;;;;;;;11.07;0.40;;;17.40;72.30;;;;;;5048593;28;20083;-64
2022/05/25 13:21:53;;;;;;;;;;;17.40;71.00;;;;;;5052117;28;20147;-64
2022/05/25 13:24:23;;;;;;;0.75;0.25;;;17.40;71.40;;;;;;5050278;28;19966;-64
2022/05/25 13:27:06;;;;;;;2.10;0.50;;;17.50;70.40;;;;;;5051229;28;20113;-64
2022/05/25 13:30:07;;;;;;;0.45;0.30;;;17.30;69.40;;;;;;5059527;28;20051;-64
2022/05/25 13:32:49;;;;;;;0.47;0.20;;;17.40;71.50;;;;;;5066008;28;20774;-63
2022/05/25 13:35:21;;;;;;;1.30;0.20;;;17.60;69.30;;;;;;5068146;28;20036;-64
2022/05/25 13:37:57;;;;;;;3.53;0.20;;;17.50;70.50;;;;;;5062470;28;20044;-64
2022/05/25 13:40:31;;;;;;;3.72;0.30;;;17.40;71.00;;;;;;5067010;28;20108;-65
2022/05/25 13:42:58;;;;;;;1.05;0.30;;;17.20;73.70;;;;;;5063594;28;20051;-64
2022/05/25 13:45:27;;;;;;;1.25;0.30;;;17.40;70.20;;;;;;5066718;28;20439;-64
2022/05/25 13:48:00;;;;;;;0.85;0.38;;;17.70;70.10;;;;;;5063542;28;20047;-64
2022/05/25 13:50:33;;;;;;;2.35;0.30;;;17.90;70.60;;;;;;5066686;28;20044;-64
2022/05/25 13:52:59;;;;;;;2.08;0.50;;;18.10;68.60;;;;;;5063671;28;20115;-64
2022/05/25 13:55:28;;;;;;;0.95;0.40;;;17.90;69.00;;;;;;5066812;28;20052;-64
2022/05/25 13:57:59;;;;;;;6.72;0.90;;;17.50;67.50;;;;;;5062669;28;20051;-64
2022/05/25 14:00:28;;;;;;;6.30;0.80;;;17.50;69.80;;;;;;5070736;28;20040;-64
2022/05/25 14:03:05;;;;;;;17.88;1.48;;;17.60;69.00;;;;;;5062734;28;20576;-64
2022/05/25 14:05:40;;;;;;;162.88;13.27;;;17.30;69.10;;;;;;5047177;28;20394;-64